createdAt,value
2018-10-11T00:00:01.198Z,789.29
2018-10-11T00:00:05.405Z,789.32
2018-10-11T00:00:09.502Z,789.33
2018-10-11T00:00:13.709Z,789.32
2018-10-11T00:00:18.026Z,789.3
2018-10-11T00:00:22.235Z,789.29
2018-10-11T00:00:26.443Z,789.36
2018-10-11T00:00:30.644Z,789.36
2018-10-11T00:00:34.845Z,789.32
2018-10-11T00:00:39.046Z,789.35
2018-10-11T00:00:43.034Z,789.35
2018-10-11T00:00:47.227Z,789.37
2018-10-11T00:00:51.426Z,789.37
2018-10-11T00:00:55.516Z,789.38
2018-10-11T00:00:59.612Z,789.38
2018-10-11T00:01:03.711Z,789.4
2018-10-11T00:01:07.929Z,789.41
2018-10-11T00:01:12.131Z,789.4
2018-10-11T00:01:16.432Z,789.43
2018-10-11T00:01:20.571Z,789.44
2018-10-11T00:01:24.662Z,789.47
2018-10-11T00:01:28.974Z,789.48
2018-10-11T00:01:33.066Z,789.49
2018-10-11T00:01:37.267Z,789.51
2018-10-11T00:01:41.464Z,789.45
2018-10-11T00:01:45.775Z,789.49
2018-10-11T00:01:49.977Z,789.5
2018-10-11T00:01:53.966Z,789.54
2018-10-11T00:01:58.284Z,789.59
2018-10-11T00:02:02.513Z,789.61
2018-10-11T00:02:06.717Z,789.56
2018-10-11T00:02:10.704Z,789.63
2018-10-11T00:02:14.806Z,789.62
2018-10-11T00:02:19.003Z,789.63
2018-10-11T00:02:23.199Z,789.64
2018-10-11T00:02:27.298Z,789.58
2018-10-11T00:02:31.505Z,789.57
2018-10-11T00:02:35.602Z,789.66
2018-10-11T00:02:39.704Z,789.69
2018-10-11T00:02:43.688Z,789.66
2018-10-11T00:02:47.888Z,789.67
2018-10-11T00:02:51.980Z,789.65
2018-10-11T00:02:56.186Z,789.67
2018-10-11T00:03:00.167Z,789.7
2018-10-11T00:03:04.162Z,789.68
2018-10-11T00:03:08.476Z,789.66
2018-10-11T00:03:12.571Z,789.63
2018-10-11T00:03:16.678Z,789.6
2018-10-11T00:03:20.669Z,789.69
2018-10-11T00:03:24.763Z,789.64
2018-10-11T00:03:28.857Z,789.63
2018-10-11T00:03:32.843Z,789.68
2018-10-11T00:03:37.146Z,789.71
2018-10-11T00:03:41.446Z,789.73
2018-10-11T00:03:45.433Z,789.72
2018-10-11T00:03:49.639Z,789.73
2018-10-11T00:03:53.837Z,789.68
2018-10-11T00:03:58.036Z,789.71
2018-10-11T00:04:02.238Z,789.71
2018-10-11T00:04:06.440Z,789.71
2018-10-11T00:04:10.531Z,789.73
2018-10-11T00:04:14.520Z,789.65
2018-10-11T00:04:18.620Z,789.67
2018-10-11T00:04:22.503Z,789.69
2018-10-11T00:04:26.816Z,789.71
2018-10-11T00:04:31.015Z,789.68
2018-10-11T00:04:35.221Z,789.71
2018-10-11T00:04:39.422Z,789.73
2018-10-11T00:04:43.725Z,789.71
2018-10-11T00:04:47.710Z,789.69
2018-10-11T00:04:51.810Z,789.72
2018-10-11T00:04:56.012Z,789.69
2018-10-11T00:05:00.223Z,789.71
2018-10-11T00:05:04.550Z,789.72
2018-10-11T00:05:08.433Z,789.72
2018-10-11T00:05:12.750Z,789.67
2018-10-11T00:05:17.073Z,789.7
2018-10-11T00:05:21.274Z,789.72
2018-10-11T00:05:25.476Z,789.68
2018-10-11T00:05:29.464Z,789.67
2018-10-11T00:05:33.775Z,789.66
2018-10-11T00:05:37.871Z,789.68
2018-10-11T00:05:41.972Z,789.69
2018-10-11T00:05:46.066Z,789.67
2018-10-11T00:05:50.369Z,789.6
2018-10-11T00:05:54.566Z,789.7
2018-10-11T00:05:58.768Z,789.61
2018-10-11T00:06:02.983Z,789.61
2018-10-11T00:06:07.199Z,789.68
2018-10-11T00:06:11.189Z,789.66
2018-10-11T00:06:15.492Z,789.63
2018-10-11T00:06:19.582Z,789.69
2018-10-11T00:06:23.893Z,789.65
2018-10-11T00:06:27.979Z,789.67
2018-10-11T00:06:32.070Z,789.66
2018-10-11T00:06:36.187Z,789.62
2018-10-11T00:06:40.281Z,789.63
2018-10-11T00:06:44.487Z,789.64
2018-10-11T00:06:48.690Z,789.64
2018-10-11T00:06:52.789Z,789.61
2018-10-11T00:06:57.098Z,789.57
2018-10-11T00:07:01.452Z,789.6
2018-10-11T00:07:05.587Z,789.55
2018-10-11T00:07:09.786Z,789.59
2018-10-11T00:07:14.089Z,789.62
2018-10-11T00:07:18.284Z,789.56
2018-10-11T00:07:22.160Z,789.62
2018-10-11T00:07:26.359Z,789.55
2018-10-11T00:07:30.455Z,789.6
2018-10-11T00:07:34.678Z,789.54
2018-10-11T00:07:38.770Z,789.55
2018-10-11T00:07:42.974Z,789.57
2018-10-11T00:07:46.962Z,789.56
2018-10-11T00:07:51.161Z,789.54
2018-10-11T00:07:55.464Z,789.53
2018-10-11T00:07:59.550Z,789.52
2018-10-11T00:08:03.539Z,789.51
2018-10-11T00:08:07.635Z,789.54
2018-10-11T00:08:11.732Z,789.51
2018-10-11T00:08:15.837Z,789.52
2018-10-11T00:08:19.932Z,789.5
2018-10-11T00:08:23.918Z,789.49
2018-10-11T00:08:28.114Z,789.49
2018-10-11T00:08:32.309Z,789.47
2018-10-11T00:08:36.394Z,789.56
2018-10-11T00:08:40.283Z,789.52
2018-10-11T00:08:44.588Z,789.5
2018-10-11T00:08:48.908Z,789.48
2018-10-11T00:08:53.106Z,789.5
2018-10-11T00:08:57.100Z,789.43
2018-10-11T00:09:01.198Z,789.48
2018-10-11T00:09:05.085Z,789.5
2018-10-11T00:09:09.178Z,789.45
2018-10-11T00:09:13.164Z,789.46
2018-10-11T00:09:17.151Z,789.44
2018-10-11T00:09:21.358Z,789.45
2018-10-11T00:09:25.663Z,789.45
2018-10-11T00:09:29.769Z,789.44
2018-10-11T00:09:34.074Z,789.43
2018-10-11T00:09:38.063Z,789.42
2018-10-11T00:09:42.375Z,789.39
2018-10-11T00:09:46.574Z,789.43
2018-10-11T00:09:50.670Z,789.42
2018-10-11T00:09:54.658Z,789.4
2018-10-11T00:09:58.653Z,789.38
2018-10-11T00:10:02.488Z,789.41
2018-10-11T00:10:06.476Z,789.42
2018-10-11T00:10:10.469Z,789.4
2018-10-11T00:10:14.576Z,789.4
2018-10-11T00:10:18.885Z,789.41
2018-10-11T00:10:22.881Z,789.38
2018-10-11T00:10:26.977Z,789.4
2018-10-11T00:10:31.190Z,789.39
2018-10-11T00:10:35.180Z,789.39
2018-10-11T00:10:39.282Z,789.4
2018-10-11T00:10:43.531Z,789.39
2018-10-11T00:10:47.625Z,789.4
2018-10-11T00:10:51.930Z,789.37
2018-10-11T00:10:56.240Z,789.4
2018-10-11T00:11:00.447Z,789.33
2018-10-11T00:11:04.644Z,789.37
2018-10-11T00:11:08.667Z,789.36
2018-10-11T00:11:12.756Z,789.4
2018-10-11T00:11:17.058Z,789.34
2018-10-11T00:11:21.260Z,789.35
2018-10-11T00:11:25.577Z,789.37
2018-10-11T00:11:29.677Z,789.4
2018-10-11T00:11:33.564Z,789.41
2018-10-11T00:11:37.767Z,789.43
2018-10-11T00:11:41.864Z,789.41
2018-10-11T00:11:45.973Z,789.4
2018-10-11T00:11:49.857Z,789.41
2018-10-11T00:11:54.056Z,789.4
2018-10-11T00:11:58.150Z,789.4
2018-10-11T00:12:02.371Z,789.38
2018-10-11T00:12:06.506Z,789.37
2018-10-11T00:12:10.611Z,789.37
2018-10-11T00:12:14.505Z,789.33
2018-10-11T00:12:18.715Z,789.35
2018-10-11T00:12:22.706Z,789.42
2018-10-11T00:12:26.902Z,789.4
2018-10-11T00:12:31.008Z,789.37
2018-10-11T00:12:35.104Z,789.38
2018-10-11T00:12:39.198Z,789.34
2018-10-11T00:12:43.303Z,789.36
2018-10-11T00:12:47.514Z,789.38
2018-10-11T00:12:51.624Z,789.37
2018-10-11T00:12:55.718Z,789.35
2018-10-11T00:12:59.925Z,789.39
2018-10-11T00:13:03.808Z,789.39
2018-10-11T00:13:07.915Z,789.41
2018-10-11T00:13:12.008Z,789.38
2018-10-11T00:13:15.995Z,789.39
2018-10-11T00:13:20.202Z,789.34
2018-10-11T00:13:24.519Z,789.35
2018-10-11T00:13:28.508Z,789.38
2018-10-11T00:13:32.605Z,789.41
2018-10-11T00:13:36.705Z,789.39
2018-10-11T00:13:40.914Z,789.41
2018-10-11T00:13:44.898Z,789.4
2018-10-11T00:13:48.990Z,789.37
2018-10-11T00:13:53.200Z,789.41
2018-10-11T00:13:57.183Z,789.38
2018-10-11T00:14:01.389Z,789.41
2018-10-11T00:14:05.542Z,789.41
2018-10-11T00:14:09.641Z,789.36
2018-10-11T00:14:13.737Z,789.39
2018-10-11T00:14:17.943Z,789.39
2018-10-11T00:14:21.827Z,789.38
2018-10-11T00:14:25.818Z,789.4
2018-10-11T00:14:29.919Z,789.41
2018-10-11T00:14:33.908Z,789.41
2018-10-11T00:14:37.853Z,789.34
2018-10-11T00:14:42.158Z,789.38
2018-10-11T00:14:46.477Z,789.38
2018-10-11T00:14:50.607Z,789.39
2018-10-11T00:14:54.928Z,789.38
2018-10-11T00:14:59.130Z,789.37
2018-10-11T00:15:03.328Z,789.34
2018-10-11T00:15:07.315Z,789.36
2018-10-11T00:15:11.411Z,789.34
2018-10-11T00:15:15.514Z,789.36
2018-10-11T00:15:19.608Z,789.38
2018-10-11T00:15:23.915Z,789.4
2018-10-11T00:15:28.010Z,789.37
2018-10-11T00:15:31.887Z,789.38
2018-10-11T00:15:35.867Z,789.37
2018-10-11T00:15:39.955Z,789.33
2018-10-11T00:15:43.940Z,789.37
2018-10-11T00:15:48.137Z,789.39
2018-10-11T00:15:52.338Z,789.37
2018-10-11T00:15:56.338Z,789.36
2018-10-11T00:16:00.540Z,789.36
2018-10-11T00:16:04.787Z,789.34
2018-10-11T00:16:09.001Z,789.36
2018-10-11T00:16:13.101Z,789.36
2018-10-11T00:16:16.980Z,789.38
2018-10-11T00:16:21.293Z,789.35
2018-10-11T00:16:25.382Z,789.32
2018-10-11T00:16:29.476Z,789.37
2018-10-11T00:16:33.560Z,789.31
2018-10-11T00:16:37.767Z,789.28
2018-10-11T00:16:41.964Z,789.34
2018-10-11T00:16:46.165Z,789.32
2018-10-11T00:16:50.045Z,789.31
2018-10-11T00:16:54.353Z,789.27
2018-10-11T00:16:58.440Z,789.32
2018-10-11T00:17:02.753Z,789.31
2018-10-11T00:17:06.842Z,789.3
2018-10-11T00:17:10.945Z,789.3
2018-10-11T00:17:15.253Z,789.3
2018-10-11T00:17:19.449Z,789.28
2018-10-11T00:17:23.655Z,789.28
2018-10-11T00:17:27.972Z,789.32
2018-10-11T00:17:32.183Z,789.22
2018-10-11T00:17:36.168Z,789.27
2018-10-11T00:17:40.368Z,789.24
2018-10-11T00:17:44.582Z,789.27
2018-10-11T00:17:48.780Z,789.26
2018-10-11T00:17:52.972Z,789.22
2018-10-11T00:17:56.954Z,789.25
2018-10-11T00:18:01.258Z,789.22
2018-10-11T00:18:05.454Z,789.22
2018-10-11T00:18:09.373Z,789.23
2018-10-11T00:18:13.594Z,789.19
2018-10-11T00:18:17.694Z,789.21
2018-10-11T00:18:21.782Z,789.2
2018-10-11T00:18:25.982Z,789.21
2018-10-11T00:18:30.288Z,789.2
2018-10-11T00:18:34.379Z,789.22
2018-10-11T00:18:38.589Z,789.23
2018-10-11T00:18:42.684Z,789.19
2018-10-11T00:18:47.004Z,789.17
2018-10-11T00:18:51.314Z,789.2
2018-10-11T00:18:55.512Z,789.23
2018-10-11T00:18:59.607Z,789.18
2018-10-11T00:19:04.075Z,789.19
2018-10-11T00:19:08.286Z,789.23
2018-10-11T00:19:12.490Z,789.17
2018-10-11T00:19:16.480Z,789.16
2018-10-11T00:19:20.799Z,789.15
2018-10-11T00:19:24.994Z,789.15
2018-10-11T00:19:29.306Z,789.18
2018-10-11T00:19:33.505Z,789.14
2018-10-11T00:19:37.708Z,789.13
2018-10-11T00:19:42.010Z,789.13
2018-10-11T00:19:46.236Z,789.12
2018-10-11T00:19:50.743Z,789.12
2018-10-11T00:19:55.453Z,789.12
2018-10-11T00:20:00.207Z,789.1
2018-10-11T00:20:05.260Z,789.1
2018-10-11T00:20:10.089Z,789.07
2018-10-11T00:20:14.265Z,789.06
2018-10-11T00:20:18.588Z,789.07
2018-10-11T00:20:22.801Z,789.08
2018-10-11T00:20:27.005Z,789.07
2018-10-11T00:20:31.200Z,789.04
2018-10-11T00:20:35.400Z,789.07
2018-10-11T00:20:39.598Z,789.01
2018-10-11T00:20:43.906Z,789.05
2018-10-11T00:20:48.114Z,789.03
2018-10-11T00:20:52.320Z,789.06
2018-10-11T00:20:56.523Z,789.05
2018-10-11T00:21:00.719Z,789.03
2018-10-11T00:21:04.927Z,789.01
2018-10-11T00:21:09.143Z,789
2018-10-11T00:21:13.247Z,789.02
2018-10-11T00:21:17.453Z,788.95
2018-10-11T00:21:21.441Z,788.98
2018-10-11T00:21:25.658Z,788.98
2018-10-11T00:21:29.872Z,789
2018-10-11T00:21:34.180Z,788.94
2018-10-11T00:21:38.390Z,788.92
2018-10-11T00:21:42.595Z,788.93
2018-10-11T00:21:46.805Z,788.98
2018-10-11T00:21:50.902Z,788.97
2018-10-11T00:21:55.211Z,788.94
2018-10-11T00:21:59.523Z,788.96
2018-10-11T00:22:03.616Z,788.95
2018-10-11T00:22:07.822Z,788.93
2018-10-11T00:22:12.022Z,788.94
2018-10-11T00:22:16.223Z,788.91
2018-10-11T00:22:20.536Z,788.92
2018-10-11T00:22:24.738Z,788.9
2018-10-11T00:22:29.045Z,788.91
2018-10-11T00:22:33.351Z,788.91
2018-10-11T00:22:37.552Z,788.9
2018-10-11T00:22:41.760Z,788.9
2018-10-11T00:22:45.959Z,788.88
2018-10-11T00:22:50.270Z,788.89
2018-10-11T00:22:54.574Z,788.83
2018-10-11T00:22:58.666Z,788.86
2018-10-11T00:23:02.982Z,788.88
2018-10-11T00:23:07.286Z,788.85
2018-10-11T00:23:11.375Z,788.82
2018-10-11T00:23:15.682Z,788.84
2018-10-11T00:23:19.944Z,788.83
2018-10-11T00:23:24.145Z,788.84
2018-10-11T00:23:28.346Z,788.86
2018-10-11T00:23:32.478Z,788.81
2018-10-11T00:23:36.682Z,788.82
2018-10-11T00:23:40.879Z,788.82
2018-10-11T00:23:44.974Z,788.82
2018-10-11T00:23:49.172Z,788.8
2018-10-11T00:23:53.482Z,788.79
2018-10-11T00:23:57.573Z,788.78
2018-10-11T00:24:01.783Z,788.82
2018-10-11T00:24:05.929Z,788.8
2018-10-11T00:24:10.236Z,788.77
2018-10-11T00:24:14.222Z,788.8
2018-10-11T00:24:18.525Z,788.79
2018-10-11T00:24:22.840Z,788.8
2018-10-11T00:24:27.039Z,788.78
2018-10-11T00:24:31.246Z,788.77
2018-10-11T00:24:35.341Z,788.78
2018-10-11T00:24:39.645Z,788.75
2018-10-11T00:24:43.741Z,788.75
2018-10-11T00:24:48.069Z,788.78
2018-10-11T00:24:52.269Z,788.71
2018-10-11T00:24:56.573Z,788.75
2018-10-11T00:25:00.885Z,788.77
2018-10-11T00:25:04.897Z,788.74
2018-10-11T00:25:08.992Z,788.75
2018-10-11T00:25:13.087Z,788.73
2018-10-11T00:25:17.193Z,788.73
2018-10-11T00:25:21.179Z,788.74
2018-10-11T00:25:25.505Z,788.72
2018-10-11T00:25:29.813Z,788.73
2018-10-11T00:25:33.907Z,788.71
2018-10-11T00:25:38.111Z,788.73
2018-10-11T00:25:42.464Z,788.73
2018-10-11T00:25:46.669Z,788.7
2018-10-11T00:25:50.974Z,788.71
2018-10-11T00:25:55.191Z,788.72
2018-10-11T00:25:59.391Z,788.7
2018-10-11T00:26:03.492Z,788.7
2018-10-11T00:26:07.699Z,788.69
2018-10-11T00:26:12.001Z,788.69
2018-10-11T00:26:16.107Z,788.73
2018-10-11T00:26:20.313Z,788.68
2018-10-11T00:26:24.409Z,788.66
2018-10-11T00:26:28.717Z,788.67
2018-10-11T00:26:32.809Z,788.65
2018-10-11T00:26:37.047Z,788.67
2018-10-11T00:26:41.252Z,788.67
2018-10-11T00:26:45.456Z,788.68
2018-10-11T00:26:49.668Z,788.67
2018-10-11T00:26:53.974Z,788.7
2018-10-11T00:26:58.175Z,788.66
2018-10-11T00:27:02.578Z,788.67
2018-10-11T00:27:06.784Z,788.63
2018-10-11T00:27:10.880Z,788.63
2018-10-11T00:27:14.973Z,788.63
2018-10-11T00:27:19.300Z,788.63
2018-10-11T00:27:23.652Z,788.65
2018-10-11T00:27:27.955Z,788.58
2018-10-11T00:27:32.155Z,788.57
2018-10-11T00:27:36.459Z,788.58
2018-10-11T00:27:40.657Z,788.64
2018-10-11T00:27:44.857Z,788.65
2018-10-11T00:27:49.055Z,788.62
2018-10-11T00:27:53.257Z,788.62
2018-10-11T00:27:57.559Z,788.63
2018-10-11T00:28:01.658Z,788.61
2018-10-11T00:28:05.853Z,788.55
2018-10-11T00:28:09.947Z,788.64
2018-10-11T00:28:14.148Z,788.65
2018-10-11T00:28:18.349Z,788.64
2018-10-11T00:28:22.440Z,788.64
2018-10-11T00:28:26.745Z,788.62
2018-10-11T00:28:31.053Z,788.6
2018-10-11T00:28:35.371Z,788.64
2018-10-11T00:28:39.677Z,788.66
2018-10-11T00:28:43.766Z,788.63
2018-10-11T00:28:47.749Z,788.65
2018-10-11T00:28:52.052Z,788.64
2018-10-11T00:28:56.255Z,788.62
2018-10-11T00:29:00.458Z,788.65
2018-10-11T00:29:04.769Z,788.65
2018-10-11T00:29:08.971Z,788.59
2018-10-11T00:29:13.168Z,788.58
2018-10-11T00:29:17.262Z,788.66
2018-10-11T00:29:21.358Z,788.66
2018-10-11T00:29:25.676Z,788.61
2018-10-11T00:29:29.987Z,788.66
2018-10-11T00:29:34.304Z,788.67
2018-10-11T00:29:38.394Z,788.64
2018-10-11T00:29:42.491Z,788.64
2018-10-11T00:29:46.578Z,788.66
2018-10-11T00:29:50.668Z,788.67
2018-10-11T00:29:54.974Z,788.67
2018-10-11T00:29:59.284Z,788.68
2018-10-11T00:30:03.323Z,788.63
2018-10-11T00:30:07.524Z,788.67
2018-10-11T00:30:11.623Z,788.66
2018-10-11T00:30:15.841Z,788.66
2018-10-11T00:30:20.146Z,788.74
2018-10-11T00:30:24.356Z,788.67
2018-10-11T00:30:28.760Z,788.69
2018-10-11T00:30:33.134Z,788.67
2018-10-11T00:30:37.816Z,788.71
2018-10-11T00:30:42.601Z,788.7
2018-10-11T00:30:47.811Z,788.69
2018-10-11T00:30:52.844Z,788.69
2018-10-11T00:30:57.157Z,788.71
2018-10-11T00:31:01.469Z,788.69
2018-10-11T00:31:05.689Z,788.67
2018-10-11T00:31:10.001Z,788.68
2018-10-11T00:31:14.306Z,788.7
2018-10-11T00:31:18.405Z,788.73
2018-10-11T00:31:22.610Z,788.66
2018-10-11T00:31:26.925Z,788.61
2018-10-11T00:31:31.241Z,788.66
2018-10-11T00:31:35.549Z,788.67
2018-10-11T00:31:39.641Z,788.68
2018-10-11T00:31:43.626Z,788.69
2018-10-11T00:31:47.612Z,788.66
2018-10-11T00:31:51.918Z,788.69
2018-10-11T00:31:56.233Z,788.7
2018-10-11T00:32:00.441Z,788.69
2018-10-11T00:32:04.655Z,788.7
2018-10-11T00:32:08.965Z,788.7
2018-10-11T00:32:13.173Z,788.72
2018-10-11T00:32:17.480Z,788.67
2018-10-11T00:32:21.681Z,788.69
2018-10-11T00:32:25.992Z,788.67
2018-10-11T00:32:30.301Z,788.7
2018-10-11T00:32:34.604Z,788.68
2018-10-11T00:32:38.817Z,788.7
2018-10-11T00:32:43.125Z,788.69
2018-10-11T00:32:47.321Z,788.66
2018-10-11T00:32:51.422Z,788.67
2018-10-11T00:32:55.411Z,788.68
2018-10-11T00:32:59.510Z,788.7
2018-10-11T00:33:03.603Z,788.69
2018-10-11T00:33:07.804Z,788.7
2018-10-11T00:33:12.114Z,788.68
2018-10-11T00:33:16.214Z,788.7
2018-10-11T00:33:20.435Z,788.69
2018-10-11T00:33:24.749Z,788.68
2018-10-11T00:33:28.850Z,788.7
2018-10-11T00:33:33.055Z,788.7
2018-10-11T00:33:37.148Z,788.7
2018-10-11T00:33:41.266Z,788.66
2018-10-11T00:33:45.572Z,788.71
2018-10-11T00:33:49.783Z,788.69
2018-10-11T00:33:54.088Z,788.7
2018-10-11T00:33:58.188Z,788.72
2018-10-11T00:34:02.394Z,788.7
2018-10-11T00:34:06.596Z,788.68
2018-10-11T00:34:10.804Z,788.74
2018-10-11T00:34:15.118Z,788.68
2018-10-11T00:34:19.436Z,788.74
2018-10-11T00:34:23.650Z,788.72
2018-10-11T00:34:27.644Z,788.73
2018-10-11T00:34:31.738Z,788.7
2018-10-11T00:34:35.936Z,788.73
2018-10-11T00:34:40.133Z,788.75
2018-10-11T00:34:44.439Z,788.74
2018-10-11T00:34:48.436Z,788.69
2018-10-11T00:34:52.635Z,788.71
2018-10-11T00:34:56.736Z,788.7
2018-10-11T00:35:00.946Z,788.71
2018-10-11T00:35:05.153Z,788.71
2018-10-11T00:35:09.357Z,788.72
2018-10-11T00:35:13.492Z,788.76
2018-10-11T00:35:17.692Z,788.68
2018-10-11T00:35:21.783Z,788.7
2018-10-11T00:35:26.106Z,788.74
2018-10-11T00:35:30.413Z,788.75
2018-10-11T00:35:34.617Z,788.73
2018-10-11T00:35:38.825Z,788.75
2018-10-11T00:35:42.919Z,788.75
2018-10-11T00:35:47.016Z,788.74
2018-10-11T00:35:51.218Z,788.71
2018-10-11T00:35:55.421Z,788.78
2018-10-11T00:35:59.626Z,788.75
2018-10-11T00:36:03.939Z,788.79
2018-10-11T00:36:08.251Z,788.8
2018-10-11T00:36:12.553Z,788.79
2018-10-11T00:36:16.857Z,788.78
2018-10-11T00:36:20.956Z,788.76
2018-10-11T00:36:25.263Z,788.78
2018-10-11T00:36:29.579Z,788.8
2018-10-11T00:36:33.779Z,788.79
2018-10-11T00:36:38.099Z,788.79
2018-10-11T00:36:42.299Z,788.76
2018-10-11T00:36:46.510Z,788.78
2018-10-11T00:36:50.709Z,788.79
2018-10-11T00:36:55.012Z,788.79
2018-10-11T00:36:59.212Z,788.79
2018-10-11T00:37:03.487Z,788.78
2018-10-11T00:37:07.795Z,788.8
2018-10-11T00:37:11.990Z,788.82
2018-10-11T00:37:16.302Z,788.82
2018-10-11T00:37:20.397Z,788.8
2018-10-11T00:37:24.595Z,788.81
2018-10-11T00:37:28.894Z,788.79
2018-10-11T00:37:33.094Z,788.83
2018-10-11T00:37:37.298Z,788.79
2018-10-11T00:37:41.605Z,788.78
2018-10-11T00:37:45.917Z,788.8
2018-10-11T00:37:50.219Z,788.79
2018-10-11T00:37:54.430Z,788.75
2018-10-11T00:37:58.746Z,788.78
2018-10-11T00:38:02.846Z,788.75
2018-10-11T00:38:06.950Z,788.77
2018-10-11T00:38:11.256Z,788.78
2018-10-11T00:38:15.357Z,788.83
2018-10-11T00:38:19.348Z,788.82
2018-10-11T00:38:23.555Z,788.82
2018-10-11T00:38:27.754Z,788.84
2018-10-11T00:38:32.065Z,788.82
2018-10-11T00:38:36.269Z,788.86
2018-10-11T00:38:40.480Z,788.81
2018-10-11T00:38:44.795Z,788.82
2018-10-11T00:38:49.110Z,788.82
2018-10-11T00:38:53.408Z,788.83
2018-10-11T00:38:57.505Z,788.83
2018-10-11T00:39:01.808Z,788.82
2018-10-11T00:39:05.900Z,788.84
2018-10-11T00:39:10.009Z,788.82
2018-10-11T00:39:14.105Z,788.85
2018-10-11T00:39:18.330Z,788.85
2018-10-11T00:39:22.544Z,788.85
2018-10-11T00:39:26.741Z,788.86
2018-10-11T00:39:30.947Z,788.82
2018-10-11T00:39:35.147Z,788.85
2018-10-11T00:39:39.395Z,788.83
2018-10-11T00:39:43.594Z,788.79
2018-10-11T00:39:47.681Z,788.81
2018-10-11T00:39:51.890Z,788.83
2018-10-11T00:39:55.982Z,788.82
2018-10-11T00:40:00.075Z,788.84
2018-10-11T00:40:04.212Z,788.83
2018-10-11T00:40:08.302Z,788.81
2018-10-11T00:40:12.503Z,788.84
2018-10-11T00:40:16.601Z,788.83
2018-10-11T00:40:20.806Z,788.81
2018-10-11T00:40:24.899Z,788.8
2018-10-11T00:40:29.090Z,788.8
2018-10-11T00:40:33.415Z,788.76
2018-10-11T00:40:37.506Z,788.81
2018-10-11T00:40:41.707Z,788.8
2018-10-11T00:40:46.016Z,788.8
2018-10-11T00:40:50.224Z,788.8
2018-10-11T00:40:54.425Z,788.77
2018-10-11T00:40:58.626Z,788.79
2018-10-11T00:41:02.733Z,788.81
2018-10-11T00:41:06.939Z,788.81
2018-10-11T00:41:11.031Z,788.82
2018-10-11T00:41:15.234Z,788.81
2018-10-11T00:41:19.545Z,788.79
2018-10-11T00:41:23.857Z,788.79
2018-10-11T00:41:28.171Z,788.8
2018-10-11T00:41:32.377Z,788.77
2018-10-11T00:41:36.584Z,788.81
2018-10-11T00:41:40.792Z,788.78
2018-10-11T00:41:45.100Z,788.77
2018-10-11T00:41:49.301Z,788.79
2018-10-11T00:41:53.507Z,788.77
2018-10-11T00:41:57.843Z,788.75
2018-10-11T00:42:02.049Z,788.75
2018-10-11T00:42:06.353Z,788.79
2018-10-11T00:42:10.662Z,788.72
2018-10-11T00:42:14.753Z,788.7
2018-10-11T00:42:18.959Z,788.73
2018-10-11T00:42:23.158Z,788.74
2018-10-11T00:42:27.356Z,788.73
2018-10-11T00:42:31.663Z,788.72
2018-10-11T00:42:35.868Z,788.77
2018-10-11T00:42:40.073Z,788.74
2018-10-11T00:42:44.386Z,788.75
2018-10-11T00:42:48.692Z,788.73
2018-10-11T00:42:52.896Z,788.76
2018-10-11T00:42:57.204Z,788.72
2018-10-11T00:43:01.507Z,788.69
2018-10-11T00:43:05.813Z,788.74
2018-10-11T00:43:10.013Z,788.73
2018-10-11T00:43:14.328Z,788.73
2018-10-11T00:43:18.534Z,788.69
2018-10-11T00:43:22.748Z,788.75
2018-10-11T00:43:26.946Z,788.72
2018-10-11T00:43:31.145Z,788.72
2018-10-11T00:43:35.491Z,788.71
2018-10-11T00:43:39.579Z,788.72
2018-10-11T00:43:43.675Z,788.69
2018-10-11T00:43:47.978Z,788.7
2018-10-11T00:43:52.179Z,788.7
2018-10-11T00:43:56.484Z,788.69
2018-10-11T00:44:00.678Z,788.66
2018-10-11T00:44:04.878Z,788.69
2018-10-11T00:44:09.234Z,788.64
2018-10-11T00:44:13.123Z,788.68
2018-10-11T00:44:17.327Z,788.63
2018-10-11T00:44:21.527Z,788.68
2018-10-11T00:44:25.742Z,788.63
2018-10-11T00:44:30.051Z,788.67
2018-10-11T00:44:34.252Z,788.65
2018-10-11T00:44:38.566Z,788.63
2018-10-11T00:44:42.771Z,788.64
2018-10-11T00:44:47.078Z,788.63
2018-10-11T00:44:51.288Z,788.58
2018-10-11T00:44:55.489Z,788.62
2018-10-11T00:44:59.700Z,788.61
2018-10-11T00:45:03.802Z,788.61
2018-10-11T00:45:07.997Z,788.62
2018-10-11T00:45:12.305Z,788.6
2018-10-11T00:45:16.612Z,788.58
2018-10-11T00:45:20.818Z,788.6
2018-10-11T00:45:24.960Z,788.59
2018-10-11T00:45:29.262Z,788.58
2018-10-11T00:45:33.350Z,788.56
2018-10-11T00:45:37.552Z,788.56
2018-10-11T00:45:41.539Z,788.57
2018-10-11T00:45:45.843Z,788.52
2018-10-11T00:45:50.047Z,788.51
2018-10-11T00:45:54.248Z,788.53
2018-10-11T00:45:58.342Z,788.55
2018-10-11T00:46:02.556Z,788.47
2018-10-11T00:46:06.760Z,788.48
2018-10-11T00:46:11.001Z,788.46
2018-10-11T00:46:15.309Z,788.47
2018-10-11T00:46:19.506Z,788.46
2018-10-11T00:46:23.515Z,788.49
2018-10-11T00:46:27.818Z,788.49
2018-10-11T00:46:32.119Z,788.51
2018-10-11T00:46:36.219Z,788.5
2018-10-11T00:46:40.521Z,788.51
2018-10-11T00:46:44.731Z,788.48
2018-10-11T00:46:48.832Z,788.48
2018-10-11T00:46:53.129Z,788.48
2018-10-11T00:46:57.329Z,788.47
2018-10-11T00:47:01.644Z,788.47
2018-10-11T00:47:06.001Z,788.47
2018-10-11T00:47:10.207Z,788.48
2018-10-11T00:47:14.305Z,788.49
2018-10-11T00:47:18.402Z,788.45
2018-10-11T00:47:22.609Z,788.46
2018-10-11T00:47:26.698Z,788.45
2018-10-11T00:47:30.902Z,788.48
2018-10-11T00:47:35.104Z,788.47
2018-10-11T00:47:39.299Z,788.48
2018-10-11T00:47:43.501Z,788.45
2018-10-11T00:47:47.493Z,788.47
2018-10-11T00:47:51.793Z,788.46
2018-10-11T00:47:56.094Z,788.41
2018-10-11T00:48:00.298Z,788.41
2018-10-11T00:48:04.598Z,788.45
2018-10-11T00:48:08.797Z,788.44
2018-10-11T00:48:12.901Z,788.42
2018-10-11T00:48:17.096Z,788.41
2018-10-11T00:48:21.408Z,788.45
2018-10-11T00:48:25.610Z,788.44
2018-10-11T00:48:29.806Z,788.43
2018-10-11T00:48:33.903Z,788.41
2018-10-11T00:48:38.214Z,788.42
2018-10-11T00:48:42.523Z,788.42
2018-10-11T00:48:46.721Z,788.41
2018-10-11T00:48:50.717Z,788.38
2018-10-11T00:48:55.026Z,788.38
2018-10-11T00:48:59.330Z,788.37
2018-10-11T00:49:03.520Z,788.4
2018-10-11T00:49:07.725Z,788.35
2018-10-11T00:49:11.927Z,788.32
2018-10-11T00:49:16.368Z,788.32
2018-10-11T00:49:20.907Z,788.34
2018-10-11T00:49:25.552Z,788.35
2018-10-11T00:49:29.704Z,788.37
2018-10-11T00:49:34.895Z,788.37
2018-10-11T00:49:39.629Z,788.36
2018-10-11T00:49:43.841Z,788.36
2018-10-11T00:49:48.063Z,788.32
2018-10-11T00:49:52.264Z,788.32
2018-10-11T00:49:56.470Z,788.35
2018-10-11T00:50:00.668Z,788.36
2018-10-11T00:50:04.865Z,788.32
2018-10-11T00:50:09.067Z,788.31
2018-10-11T00:50:13.268Z,788.33
2018-10-11T00:50:17.503Z,788.36
2018-10-11T00:50:21.711Z,788.32
2018-10-11T00:50:26.039Z,788.29
2018-10-11T00:50:30.241Z,788.32
2018-10-11T00:50:34.548Z,788.27
2018-10-11T00:50:38.750Z,788.29
2018-10-11T00:50:42.948Z,788.28
2018-10-11T00:50:47.253Z,788.31
2018-10-11T00:50:51.468Z,788.32
2018-10-11T00:50:55.675Z,788.31
2018-10-11T00:50:59.877Z,788.32
2018-10-11T00:51:04.299Z,788.3
2018-10-11T00:51:08.398Z,788.3
2018-10-11T00:51:12.604Z,788.29
2018-10-11T00:51:16.924Z,788.26
2018-10-11T00:51:21.024Z,788.22
2018-10-11T00:51:25.257Z,788.29
2018-10-11T00:51:29.354Z,788.27
2018-10-11T00:51:33.674Z,788.23
2018-10-11T00:51:37.984Z,788.24
2018-10-11T00:51:42.183Z,788.26
2018-10-11T00:51:46.401Z,788.26
2018-10-11T00:51:50.492Z,788.23
2018-10-11T00:51:54.688Z,788.26
2018-10-11T00:51:58.794Z,788.26
2018-10-11T00:52:02.888Z,788.24
2018-10-11T00:52:07.096Z,788.25
2018-10-11T00:52:11.300Z,788.22
2018-10-11T00:52:15.514Z,788.2
2018-10-11T00:52:19.817Z,788.19
2018-10-11T00:52:24.014Z,788.17
2018-10-11T00:52:28.319Z,788.18
2018-10-11T00:52:32.414Z,788.16